createdAt,value
2023-03-06T00:00:50.288Z,90.07
2023-03-06T00:03:19.525Z,90.38
2023-03-06T00:05:47.488Z,91.48
2023-03-06T00:08:14.919Z,89.72
2023-03-06T00:10:42.531Z,90.73
2023-03-06T00:13:13.613Z,90.51
2023-03-06T00:15:42.063Z,91.46
2023-03-06T00:18:09.678Z,89.91
2023-03-06T00:20:40.503Z,90.11
2023-03-06T00:23:08.830Z,91.38
2023-03-06T00:25:38.786Z,91.44
2023-03-06T00:28:06.765Z,92.45
2023-03-06T00:30:34.568Z,91.41
2023-03-06T00:33:01.904Z,89.72
2023-03-06T00:35:31.242Z,89.35
2023-03-06T00:37:59.878Z,90.75
2023-03-06T00:40:27.553Z,90.52
2023-03-06T00:42:54.808Z,91.96
2023-03-06T00:45:22.464Z,92.21
2023-03-06T00:47:49.774Z,91.84
2023-03-06T00:50:17.484Z,91.17
2023-03-06T00:52:44.693Z,91.73
2023-03-06T00:55:12.663Z,91.90
2023-03-06T00:57:39.958Z,92.25
2023-03-06T01:00:08.784Z,91.37
2023-03-06T01:02:36.363Z,91.87
2023-03-06T01:05:04.620Z,91.17
2023-03-06T01:07:34.170Z,90.82
2023-03-06T01:10:02.002Z,90.99
2023-03-06T01:12:29.276Z,92.11
2023-03-06T01:14:58.069Z,92.67
2023-03-06T01:17:25.559Z,91.15
2023-03-06T01:19:53.107Z,91.33
2023-03-06T01:22:20.437Z,91.73
2023-03-06T01:24:48.121Z,93.36
2023-03-06T01:27:15.529Z,93.05
2023-03-06T01:29:44.450Z,92.96
2023-03-06T01:32:11.837Z,93.06
2023-03-06T01:34:39.409Z,93.05
2023-03-06T01:37:06.675Z,94.12
2023-03-06T01:39:34.229Z,93.69
2023-03-06T01:42:01.732Z,95.22
2023-03-06T01:44:29.343Z,94.56
2023-03-06T01:46:56.677Z,93.89
2023-03-06T01:49:29.518Z,92.77
2023-03-06T01:52:23.416Z,92.64
2023-03-06T01:54:57.096Z,92.46
2023-03-06T01:57:30.113Z,93.27
2023-03-06T02:00:25.761Z,94.29
2023-03-06T02:03:06.902Z,94.64
2023-03-06T02:05:37.842Z,95.44
2023-03-06T02:08:06.794Z,95.60
2023-03-06T02:10:34.734Z,95.16
2023-03-06T02:13:02.789Z,95.66
2023-03-06T02:15:30.814Z,95.67
2023-03-06T02:18:00.489Z,97.52
2023-03-06T02:20:34.472Z,96.48
2023-03-06T02:23:24.800Z,95.82
2023-03-06T02:25:53.930Z,96.49
2023-03-06T02:28:22.934Z,95.63
2023-03-06T02:30:53.431Z,95.39
2023-03-06T02:33:24.273Z,95.39
2023-03-06T02:36:10.816Z,94.77
2023-03-06T02:38:50.180Z,95.92
2023-03-06T02:41:19.674Z,95.78
2023-03-06T02:43:49.030Z,95.50
2023-03-06T02:46:16.814Z,95.80
2023-03-06T02:48:44.338Z,95.60
2023-03-06T02:51:11.887Z,96.47
2023-03-06T02:53:39.188Z,95.31
2023-03-06T02:56:07.213Z,96.08
2023-03-06T02:58:35.798Z,96.06
2023-03-06T03:01:04.012Z,96.59
2023-03-06T03:03:31.577Z,95.86
2023-03-06T03:06:00.339Z,97.17
2023-03-06T03:08:32.874Z,97.38
2023-03-06T03:11:04.512Z,96.85
2023-03-06T03:13:38.589Z,96.39
2023-03-06T03:16:09.862Z,97.60
2023-03-06T03:18:37.277Z,96.34
2023-03-06T03:21:10.554Z,98.00
2023-03-06T03:23:38.109Z,97.03
2023-03-06T03:26:08.619Z,97.95
2023-03-06T03:28:39.099Z,98.03
2023-03-06T03:31:09.241Z,97.91
2023-03-06T03:33:36.879Z,99.01
2023-03-06T03:36:07.087Z,98.87
2023-03-06T03:38:36.994Z,99.11
2023-03-06T03:41:05.116Z,98.95
2023-03-06T03:43:32.653Z,98.66
2023-03-06T03:46:01.031Z,99.12
2023-03-06T03:48:29.197Z,98.68
2023-03-06T03:51:11.981Z,99.01
2023-03-06T03:53:44.705Z,98.65
2023-03-06T03:56:14.780Z,98.38
2023-03-06T03:58:50.738Z,99.17
2023-03-06T04:01:18.440Z,99.44
2023-03-06T04:03:45.991Z,98.97
2023-03-06T04:06:15.283Z,99.77
2023-03-06T04:08:43.238Z,98.45
2023-03-06T04:11:10.837Z,96.23
2023-03-06T04:13:38.204Z,95.36
2023-03-06T04:16:06.944Z,96.32
2023-03-06T04:18:36.014Z,96.26
2023-03-06T04:21:06.635Z,95.81
2023-03-06T04:23:34.399Z,95.76
2023-03-06T04:26:02.379Z,96.22
2023-03-06T04:28:29.837Z,96.63
2023-03-06T04:30:58.723Z,94.73
2023-03-06T04:33:26.594Z,94.99
2023-03-06T04:35:55.110Z,95.75
2023-03-06T04:38:26.869Z,96.68
2023-03-06T04:40:54.575Z,96.34
2023-03-06T04:43:21.955Z,95.82
2023-03-06T04:45:49.529Z,95.50
2023-03-06T04:48:18.626Z,94.45
2023-03-06T04:50:46.634Z,94.41
2023-03-06T04:53:14.746Z,94.70
2023-03-06T04:55:42.740Z,95.24
2023-03-06T04:58:12.516Z,94.47
2023-03-06T05:00:40.246Z,94.73
2023-03-06T05:03:08.562Z,95.04
2023-03-06T05:05:36.122Z,95.70
2023-03-06T05:08:03.641Z,94.25
2023-03-06T05:10:31.462Z,93.83
2023-03-06T05:12:58.698Z,93.45
2023-03-06T05:15:26.266Z,94.04
2023-03-06T05:17:53.631Z,93.58
2023-03-06T05:20:21.371Z,93.25
2023-03-06T05:22:48.690Z,94.00
2023-03-06T05:25:16.268Z,93.41
2023-03-06T05:27:44.035Z,93.38
2023-03-06T05:30:13.857Z,93.13
2023-03-06T05:32:41.626Z,92.75
2023-03-06T05:35:17.176Z,91.64
2023-03-06T05:37:44.560Z,91.16
2023-03-06T05:40:12.738Z,91.62
2023-03-06T05:42:40.052Z,91.81
2023-03-06T05:45:09.118Z,91.57
2023-03-06T05:47:36.542Z,90.44
2023-03-06T05:50:05.714Z,88.58
2023-03-06T05:52:32.948Z,85.14
2023-03-06T05:55:00.510Z,81.28
2023-03-06T05:57:27.773Z,76.58
2023-03-06T05:59:55.336Z,72.39
2023-03-06T06:02:22.927Z,70.59
2023-03-06T06:04:50.523Z,71.38
2023-03-06T06:07:17.996Z,68.61
2023-03-06T06:09:46.336Z,64.05
2023-03-06T06:12:14.160Z,58.89
2023-03-06T06:14:41.731Z,50.65
2023-03-06T06:17:09.128Z,47.29
2023-03-06T06:19:36.794Z,44.58
2023-03-06T06:22:04.401Z,40.61
2023-03-06T06:24:32.579Z,38.99
2023-03-06T06:27:03.335Z,37.26
2023-03-06T06:29:31.464Z,36.32
2023-03-06T06:31:59.821Z,33.55
2023-03-06T06:34:28.319Z,30.88
2023-03-06T06:36:55.668Z,30.85
2023-03-06T06:39:23.932Z,29.75
2023-03-06T06:42:09.538Z,30.12
2023-03-06T06:44:40.524Z,27.46
2023-03-06T06:47:25.108Z,26.79
2023-03-06T06:49:55.353Z,25.89
2023-03-06T06:52:24.363Z,28.35
2023-03-06T06:54:52.875Z,27.14
2023-03-06T06:57:20.172Z,27.11
2023-03-06T06:59:47.836Z,26.66
2023-03-06T07:02:16.063Z,25.34
2023-03-06T07:05:00.729Z,25.92
2023-03-06T07:07:31.097Z,24.62
2023-03-06T07:09:58.714Z,24.25
2023-03-06T07:12:26.159Z,25.05
2023-03-06T07:14:53.706Z,23.56
2023-03-06T07:17:20.927Z,23.71
2023-03-06T07:19:48.661Z,24.04
2023-03-06T07:22:16.068Z,23.59
2023-03-06T07:24:43.596Z,24.80
2023-03-06T07:27:10.859Z,23.82
2023-03-06T07:29:38.511Z,24.50
2023-03-06T07:32:06.134Z,22.94
2023-03-06T07:34:33.734Z,25.09
2023-03-06T07:37:00.961Z,25.16
2023-03-06T07:39:30.157Z,24.58
2023-03-06T07:41:58.745Z,24.27
2023-03-06T07:44:26.720Z,22.91
2023-03-06T07:46:54.164Z,22.36
2023-03-06T07:49:22.058Z,21.97
2023-03-06T07:51:49.325Z,22.09
2023-03-06T07:54:16.940Z,23.20
2023-03-06T07:56:44.205Z,21.27
2023-03-06T07:59:12.236Z,22.53
2023-03-06T08:01:40.357Z,22.69
2023-03-06T08:04:08.119Z,23.99
2023-03-06T08:06:35.466Z,21.47
2023-03-06T08:09:03.393Z,22.12
2023-03-06T08:11:31.164Z,21.56
2023-03-06T08:13:59.167Z,21.99
2023-03-06T08:16:29.103Z,22.92
2023-03-06T08:18:57.751Z,22.74
2023-03-06T08:21:27.244Z,21.51
2023-03-06T08:23:55.282Z,22.71
2023-03-06T08:26:26.343Z,21.56
2023-03-06T08:28:55.946Z,22.45
2023-03-06T08:31:31.956Z,22.33
2023-03-06T08:34:02.576Z,21.01
2023-03-06T08:36:30.625Z,21.10
2023-03-06T08:38:58.497Z,20.47
2023-03-06T08:41:26.025Z,21.65
2023-03-06T08:43:53.657Z,20.98
2023-03-06T08:46:23.889Z,20.18
2023-03-06T08:48:51.673Z,21.02
2023-03-06T08:51:20.568Z,21.45
2023-03-06T08:53:48.437Z,22.02
2023-03-06T08:56:21.150Z,22.20
2023-03-06T08:58:49.219Z,22.20
2023-03-06T09:01:23.099Z,21.42
2023-03-06T09:03:51.330Z,22.27
2023-03-06T09:06:18.560Z,23.00
2023-03-06T09:08:46.166Z,22.65
2023-03-06T09:11:15.655Z,22.83
2023-03-06T09:13:43.268Z,21.64
2023-03-06T09:16:11.717Z,22.27
2023-03-06T09:18:39.991Z,21.16
2023-03-06T09:21:08.189Z,22.58
2023-03-06T09:23:37.265Z,22.59
2023-03-06T09:26:04.708Z,22.80
2023-03-06T09:28:34.934Z,24.41
2023-03-06T09:31:05.580Z,25.04
2023-03-06T09:33:33.537Z,28.63
2023-03-06T09:36:02.478Z,31.82
2023-03-06T09:38:30.113Z,30.79
2023-03-06T09:43:43.542Z,25.07
2023-03-06T09:46:16.511Z,25.04
2023-03-06T09:49:02.872Z,24.34
2023-03-06T09:51:57.262Z,27.78
2023-03-06T09:54:37.977Z,26.52
2023-03-06T09:57:16.862Z,26.07
2023-03-06T09:59:47.635Z,29.23
2023-03-06T10:02:21.055Z,30.29
2023-03-06T10:04:54.718Z,33.12
2023-03-06T10:07:26.276Z,35.96
2023-03-06T10:10:01.910Z,36.13
2023-03-06T10:13:12.655Z,35.21
2023-03-06T10:15:44.206Z,32.04
2023-03-06T10:18:13.007Z,29.84
2023-03-06T10:21:04.724Z,27.24
2023-03-06T10:24:02.409Z,25.87
2023-03-06T10:26:40.445Z,25.12
2023-03-06T10:29:14.708Z,26.93
2023-03-06T10:31:44.892Z,29.83
2023-03-06T10:34:15.204Z,32.32
2023-03-06T10:36:42.854Z,33.12
2023-03-06T10:39:16.767Z,34.67
2023-03-06T10:41:45.423Z,35.89
2023-03-06T10:44:13.479Z,35.29
2023-03-06T10:46:43.974Z,35.57
2023-03-06T10:49:14.206Z,32.90
2023-03-06T10:51:59.782Z,29.72
2023-03-06T10:54:35.508Z,27.38
2023-03-06T10:57:29.720Z,26.38
2023-03-06T11:00:04.736Z,27.03
2023-03-06T11:02:41.171Z,28.95
2023-03-06T11:05:21.334Z,29.83
2023-03-06T11:07:59.467Z,33.01
2023-03-06T11:10:28.107Z,34.56
2023-03-06T11:13:19.274Z,35.06
2023-03-06T11:16:25.484Z,36.19
2023-03-06T11:19:07.147Z,36.84
2023-03-06T11:21:36.805Z,37.41
2023-03-06T11:24:16.362Z,37.61
2023-03-06T11:27:03.879Z,39.04
2023-03-06T11:29:38.809Z,39.41
2023-03-06T11:32:12.652Z,39.21
2023-03-06T11:35:10.844Z,39.66
2023-03-06T11:37:59.282Z,39.43
2023-03-06T11:40:52.918Z,39.34
2023-03-06T11:43:30.833Z,39.89
2023-03-06T11:46:07.440Z,39.83
2023-03-06T11:48:42.343Z,39.54
2023-03-06T11:51:50.198Z,38.26
2023-03-06T11:54:17.589Z,38.27
2023-03-06T11:57:03.887Z,38.68
2023-03-06T11:59:49.256Z,38.32
2023-03-06T12:02:33.375Z,38.17
2023-03-06T12:05:12.913Z,38.13
2023-03-06T12:08:01.826Z,38.27
2023-03-06T12:10:34.976Z,37.60
2023-03-06T12:13:26.139Z,37.67
2023-03-06T12:16:05.126Z,37.81
2023-03-06T12:18:47.688Z,37.74
2023-03-06T12:21:38.976Z,37.39
2023-03-06T12:24:28.371Z,37.27
2023-03-06T12:27:26.666Z,39.17
2023-03-06T12:30:16.057Z,38.47
2023-03-06T12:33:14.806Z,38.34
2023-03-06T12:35:54.679Z,39.35
2023-03-06T12:38:34.404Z,39.21
2023-03-06T12:41:25.695Z,39.73
2023-03-06T12:44:11.764Z,39.19
2023-03-06T12:46:45.018Z,39.29
2023-03-06T12:49:32.320Z,39.20
2023-03-06T12:52:02.277Z,39.09
2023-03-06T12:54:33.456Z,38.95
2023-03-06T12:57:01.578Z,39.38
2023-03-06T12:59:40.266Z,39.27
2023-03-06T13:02:14.238Z,39.66
2023-03-06T13:04:56.604Z,40.15
2023-03-06T13:07:57.075Z,39.50
2023-03-06T13:10:29.046Z,38.50
2023-03-06T13:12:58.294Z,38.51
2023-03-06T13:15:42.776Z,37.93
2023-03-06T13:18:22.265Z,37.23
2023-03-06T13:20:53.388Z,36.92
2023-03-06T13:23:30.182Z,36.51
2023-03-06T13:26:05.286Z,37.58
2023-03-06T13:28:47.720Z,37.12
2023-03-06T13:31:27.486Z,37.20
2023-03-06T13:34:06.491Z,36.45
2023-03-06T13:36:39.711Z,36.55
2023-03-06T13:39:11.784Z,36.56
2023-03-06T13:41:44.610Z,36.55
2023-03-06T13:44:32.346Z,36.35
2023-03-06T13:47:17.142Z,43.58
2023-03-06T13:49:48.046Z,43.99
2023-03-06T13:52:29.591Z,44.74
2023-03-06T13:55:23.667Z,48.05
2023-03-06T13:58:21.963Z,45.46
2023-03-06T14:01:08.164Z,44.52
2023-03-06T14:04:14.068Z,43.74
2023-03-06T14:06:51.561Z,43.00
2023-03-06T14:09:41.019Z,43.54
2023-03-06T14:12:26.029Z,43.48
2023-03-06T14:14:58.024Z,43.84
2023-03-06T14:17:30.256Z,44.73
2023-03-06T14:20:05.710Z,44.19
2023-03-06T14:22:33.308Z,44.12
2023-03-06T14:25:07.229Z,44.71
2023-03-06T14:27:45.250Z,49.86
2023-03-06T14:30:15.949Z,52.01
2023-03-06T14:32:44.306Z,52.51
2023-03-06T14:35:32.443Z,53.01
2023-03-06T14:38:03.148Z,54.58
2023-03-06T14:40:35.181Z,53.83
2023-03-06T14:43:18.241Z,55.35
2023-03-06T14:45:54.736Z,56.62
2023-03-06T14:48:23.306Z,56.15
2023-03-06T14:50:58.125Z,56.62
2023-03-06T14:53:29.897Z,56.35
2023-03-06T14:56:01.203Z,59.00
2023-03-06T14:58:43.938Z,62.59
2023-03-06T15:01:13.367Z,63.28
2023-03-06T15:03:44.509Z,64.65
2023-03-06T15:06:27.516Z,64.75
2023-03-06T15:09:07.488Z,63.45
2023-03-06T15:12:02.598Z,66.57
2023-03-06T15:14:42.935Z,67.91
2023-03-06T15:17:23.007Z,70.47
2023-03-06T15:19:54.613Z,69.08
2023-03-06T15:22:37.938Z,68.23
2023-03-06T15:25:30.254Z,70.45
2023-03-06T15:28:26.001Z,72.07
2023-03-06T15:31:17.643Z,72.11
2023-03-06T15:33:59.692Z,71.37
2023-03-06T15:36:29.814Z,72.14
2023-03-06T15:38:58.422Z,71.95
2023-03-06T15:41:34.101Z,72.56
2023-03-06T15:44:03.898Z,72.97
2023-03-06T15:46:31.575Z,74.26
2023-03-06T15:49:04.319Z,73.64
2023-03-06T15:51:32.594Z,74.39
2023-03-06T15:54:11.302Z,77.03
2023-03-06T15:56:43.334Z,78.91
2023-03-06T15:59:26.495Z,81.62
2023-03-06T16:01:54.592Z,89.33
2023-03-06T16:04:21.952Z,92.91
2023-03-06T16:06:49.574Z,94.21
2023-03-06T16:09:16.894Z,92.76
2023-03-06T16:11:45.148Z,89.63
2023-03-06T16:14:21.490Z,90.19
2023-03-06T16:16:50.231Z,90.46
2023-03-06T16:19:27.848Z,91.63
2023-03-06T16:21:56.798Z,88.31
2023-03-06T16:24:26.259Z,87.02
2023-03-06T16:26:55.040Z,90.73
2023-03-06T16:29:26.587Z,90.36
2023-03-06T16:31:56.527Z,90.65
2023-03-06T16:34:24.726Z,92.54
2023-03-06T16:36:52.476Z,90.64
2023-03-06T16:39:36.378Z,89.42
2023-03-06T16:42:14.451Z,89.01
2023-03-06T16:44:47.246Z,87.15
2023-03-06T16:47:14.756Z,87.46
2023-03-06T16:49:42.383Z,85.97
2023-03-06T16:52:11.564Z,84.76
2023-03-06T16:54:38.942Z,85.61
2023-03-06T16:57:06.559Z,85.58
2023-03-06T16:59:33.837Z,85.62
2023-03-06T17:02:01.378Z,85.32
2023-03-06T17:04:28.652Z,85.83
2023-03-06T17:06:56.184Z,85.53
2023-03-06T17:09:23.546Z,85.22
2023-03-06T17:11:51.084Z,84.63
2023-03-06T17:14:18.392Z,83.68
2023-03-06T17:16:46.520Z,83.52
2023-03-06T17:19:15.330Z,82.82
2023-03-06T17:21:43.924Z,82.01
2023-03-06T17:24:11.219Z,82.08
2023-03-06T17:26:39.186Z,81.59
2023-03-06T17:29:07.182Z,80.33
2023-03-06T17:31:35.902Z,78.90
2023-03-06T17:34:03.742Z,78.28
2023-03-06T17:36:32.087Z,81.61
2023-03-06T17:39:02.130Z,86.82
2023-03-06T17:41:30.034Z,91.01
2023-03-06T17:43:58.477Z,94.55
2023-03-06T17:46:26.296Z,97.00
2023-03-06T17:48:54.346Z,96.79
2023-03-06T17:51:21.898Z,98.25
2023-03-06T17:53:49.576Z,97.65
2023-03-06T17:56:17.215Z,100.00
2023-03-06T17:58:44.813Z,100.00
2023-03-06T18:01:24.012Z,100.00
2023-03-06T18:03:51.712Z,100.00
2023-03-06T18:06:20.800Z,100.00
2023-03-06T18:08:51.551Z,100.00
2023-03-06T18:11:20.603Z,100.00
2023-03-06T18:13:48.811Z,100.00
2023-03-06T18:16:19.312Z,100.00
2023-03-06T18:18:47.282Z,100.00
2023-03-06T18:21:16.816Z,100.00
2023-03-06T18:23:44.395Z,100.00
2023-03-06T18:26:24.213Z,100.00
2023-03-06T18:28:57.010Z,100.00
2023-03-06T18:31:33.753Z,100.00
2023-03-06T18:34:04.696Z,100.00
2023-03-06T18:36:33.503Z,100.00
2023-03-06T18:39:03.874Z,100.00
2023-03-06T18:41:32.396Z,100.00
2023-03-06T18:44:01.465Z,100.00
2023-03-06T18:46:34.881Z,100.00
2023-03-06T18:49:02.581Z,100.00
2023-03-06T18:51:30.865Z,100.00
2023-03-06T18:54:02.438Z,100.00
2023-03-06T18:56:35.700Z,100.00
2023-03-06T18:59:06.972Z,100.00
2023-03-06T19:01:35.075Z,100.00
2023-03-06T19:04:03.614Z,100.00
2023-03-06T19:06:31.409Z,100.00
2023-03-06T19:08:58.938Z,100.00
2023-03-06T19:11:26.939Z,100.00
2023-03-06T19:13:54.622Z,100.00
2023-03-06T19:16:24.580Z,100.00
2023-03-06T19:18:52.159Z,100.00
2023-03-06T19:21:22.294Z,100.00
2023-03-06T19:23:49.658Z,100.00
2023-03-06T19:26:21.033Z,100.00
2023-03-06T19:28:48.954Z,100.00
2023-03-06T19:31:20.331Z,100.00
2023-03-06T19:33:49.436Z,100.00
2023-03-06T19:36:19.615Z,100.00
2023-03-06T19:38:52.625Z,100.00
2023-03-06T19:41:20.198Z,100.00
2023-03-06T19:43:52.252Z,100.00
2023-03-06T19:46:21.347Z,100.00
2023-03-06T19:48:54.782Z,100.00
2023-03-06T19:51:22.300Z,100.00
2023-03-06T19:53:49.570Z,100.00
2023-03-06T19:56:20.954Z,100.00
2023-03-06T19:58:48.477Z,100.00
2023-03-06T20:01:21.214Z,100.00
2023-03-06T20:03:50.679Z,100.00
2023-03-06T20:06:19.865Z,100.00
2023-03-06T20:08:47.595Z,100.00
2023-03-06T20:11:23.560Z,100.00
2023-03-06T20:13:51.076Z,100.00
2023-03-06T20:16:19.867Z,100.00
2023-03-06T20:18:47.237Z,100.00
2023-03-06T20:21:15.701Z,100.00
2023-03-06T20:23:43.344Z,100.00
2023-03-06T20:26:12.964Z,100.00
2023-03-06T20:28:41.882Z,100.00
2023-03-06T20:31:13.504Z,100.00
2023-03-06T20:33:40.810Z,100.00
2023-03-06T20:36:21.759Z,100.00
2023-03-06T20:38:49.469Z,100.00
2023-03-06T20:41:22.798Z,100.00
2023-03-06T20:43:50.840Z,100.00
2023-03-06T20:46:20.294Z,99.23
2023-03-06T20:48:49.982Z,100.00
2023-03-06T20:51:36.265Z,100.00
2023-03-06T20:54:03.969Z,100.00
2023-03-06T20:56:33.443Z,100.00
2023-03-06T20:59:01.249Z,100.00
2023-03-06T21:01:35.386Z,100.00
2023-03-06T21:04:06.960Z,100.00
2023-03-06T21:06:34.883Z,100.00
2023-03-06T21:09:02.915Z,100.00
2023-03-06T21:11:30.576Z,98.22
2023-03-06T21:13:58.236Z,95.67
2023-03-06T21:16:27.477Z,93.34
2023-03-06T21:18:55.488Z,92.01
2023-03-06T21:21:25.301Z,90.54
2023-03-06T21:23:52.791Z,90.13
2023-03-06T21:26:22.902Z,90.97
2023-03-06T21:28:50.531Z,90.83
2023-03-06T21:31:20.699Z,91.33
2023-03-06T21:33:49.584Z,91.20
2023-03-06T21:36:18.826Z,92.35
2023-03-06T21:38:47.831Z,89.68
2023-03-06T21:41:18.322Z,88.48
2023-03-06T21:43:45.671Z,88.10
2023-03-06T21:46:13.625Z,88.95
2023-03-06T21:48:41.505Z,88.43
2023-03-06T21:51:12.332Z,88.33
2023-03-06T21:53:42.510Z,89.30
2023-03-06T21:56:10.985Z,87.59
2023-03-06T21:58:38.307Z,85.34
2023-03-06T22:01:22.182Z,85.03
2023-03-06T22:03:49.964Z,86.43
2023-03-06T22:06:20.316Z,85.23
2023-03-06T22:08:47.672Z,84.58
2023-03-06T22:11:20.094Z,85.66
2023-03-06T22:13:50.572Z,85.27
2023-03-06T22:16:18.552Z,83.85
2023-03-06T22:18:47.662Z,82.83
2023-03-06T22:21:17.387Z,82.61
2023-03-06T22:23:48.337Z,81.47
2023-03-06T22:26:16.042Z,80.29
2023-03-06T22:28:43.335Z,79.98
2023-03-06T22:31:19.786Z,79.96
2023-03-06T22:33:50.065Z,79.67
2023-03-06T22:36:18.267Z,79.96
2023-03-06T22:38:46.611Z,79.66
2023-03-06T22:41:16.670Z,80.25
2023-03-06T22:43:44.321Z,81.24
2023-03-06T22:46:14.354Z,82.03
2023-03-06T22:48:41.970Z,81.34
2023-03-06T22:51:12.077Z,81.39
2023-03-06T22:53:39.946Z,81.05
2023-03-06T22:56:10.888Z,81.62
2023-03-06T22:58:39.113Z,81.86
2023-03-06T23:01:12.490Z,81.68
2023-03-06T23:03:42.652Z,82.10
2023-03-06T23:06:21.924Z,82.20
2023-03-06T23:08:52.198Z,82.59
2023-03-06T23:11:21.283Z,82.73
2023-03-06T23:14:07.229Z,83.91
2023-03-06T23:16:53.520Z,83.91
2023-03-06T23:19:39.580Z,84.29
2023-03-06T23:22:26.456Z,84.35
2023-03-06T23:25:12.692Z,84.54
2023-03-06T23:27:41.160Z,85.37
2023-03-06T23:30:09.510Z,84.88
2023-03-06T23:32:37.169Z,84.61
2023-03-06T23:35:04.764Z,84.70
2023-03-06T23:37:32.304Z,84.89
2023-03-06T23:39:59.741Z,85.01
2023-03-06T23:42:27.350Z,85.49
2023-03-06T23:44:54.597Z,85.96
2023-03-06T23:47:22.164Z,85.92
2023-03-06T23:49:49.453Z,86.63
2023-03-06T23:52:17.040Z,86.27
2023-03-06T23:54:44.479Z,87.24
2023-03-06T23:57:12.003Z,87.52
2023-03-06T23:59:39.211Z,87.68
